ADDS METAR Data INFO
IDs: Format: Raw Decoded Include TAF

Data at: 1050 UTC 19 Oct 2017

KLVL 191035Z AUTO 00000KT 7SM CLR 04/04 A3030 RMK AO1 T00440039
KLVL 191015Z AUTO 00000KT 5SM CLR 05/04 A3029 RMK AO1 T00450040
KLVL 190955Z AUTO 00000KT 7SM CLR 05/04 A3030 RMK AO1 T00460042
KLVL 190935Z AUTO 00000KT 7SM CLR 05/05 A3029 RMK AO1 T00540049
KLVL 190915Z AUTO 00000KT 7SM CLR 05/04 A3029 RMK AO1 T00470042
KLVL 190855Z AUTO 00000KT 4SM CLR 05/04 A3029 RMK AO1 T00450040
KLVL 190835Z AUTO 00000KT 3SM CLR 05/04 A3029 RMK AO1 T00450040
KLVL 190815Z AUTO 00000KT 5SM CLR 05/04 A3029 RMK AO1 T00450040
KLVL 190755Z AUTO 00000KT 5SM CLR 05/05 A3029 RMK AO1 T00500045
KLVL 190735Z AUTO 00000KT 4SM CLR 05/05 A3030 RMK AO1 T00530048
KLVL 190715Z AUTO 00000KT 5SM CLR 06/05 A3031 RMK AO1 T00570052
KLVL 190655Z AUTO 00000KT 7SM CLR 06/05 A3031 RMK AO1 T00550050
KLVL 190635Z AUTO 00000KT 7SM CLR 06/05 A3031 RMK AO1 T00580053
KLVL 190615Z AUTO 00000KT 4SM CLR 06/06 A3031 RMK AO1 T00610056
KLVL 190555Z AUTO 00000KT 5SM CLR 06/05 A3032 RMK AO1 T00570052 10110 20057
KLVL 190535Z AUTO 00000KT 10SM CLR 06/05 A3031 RMK AO1 T00620054
KLVL 190515Z AUTO 00000KT 7SM CLR 07/07 A3031 RMK AO1 T00720066
KLVL 190455Z AUTO 00000KT 10SM CLR 07/07 A3032 RMK AO1 T00710065 401970006
KLVL 190435Z AUTO 00000KT 7SM CLR 07/06 A3032 RMK AO1 T00710063
KLVL 190415Z AUTO 00000KT 7SM CLR 06/06 A3032 RMK AO1 T00640056
KLVL 190355Z AUTO 00000KT 7SM CLR 08/07 A3033 RMK AO1 T00760068
KLVL 190335Z AUTO 00000KT 7SM CLR 08/06 A3033 RMK AO1 T00750061
KLVL 190315Z AUTO 00000KT 10SM CLR 07/06 A3033 RMK AO1 T00730062
KLVL 190255Z AUTO 00000KT 10SM CLR 08/07 A3032 RMK AO1 T00830069
KLVL 190235Z AUTO 00000KT 10SM CLR 08/06 A3032 RMK AO1 T00780061
KLVL 190215Z AUTO 00000KT 10SM CLR 09/07 A3033 RMK AO1 T00860073
KLVL 190155Z AUTO 00000KT 10SM CLR 09/07 A3033 RMK AO1 T00860072
KLVL 190135Z AUTO 00000KT 10SM CLR 08/06 A3033 RMK AO1 T00800063
KLVL 190115Z AUTO 00000KT 10SM CLR 10/07 A3033 RMK AO1 T00970071
KLVL 190055Z AUTO 00000KT 10SM CLR 10/07 A3033 RMK AO1 T00980074
KLVL 190035Z AUTO 00000KT 10SM CLR 10/07 A3033 RMK AO1 T01020071
KLVL 190015Z AUTO 00000KT 10SM CLR 11/07 A3033 RMK AO1 T01080070
KLVL 182355Z AUTO 00000KT 10SM CLR 11/07 A3033 RMK AO1 T01130071 10197 20110
KLVL 182335Z AUTO 00000KT 10SM CLR 11/08 A3033 RMK AO1 T01130080
KLVL 182315Z AUTO 00000KT 10SM CLR 11/07 A3032 RMK AO1 T01130073
KLVL 182255Z AUTO 00000KT 10SM CLR 13/08 A3032 RMK AO1 T01250077
KLVL 182235Z AUTO 00000KT 10SM CLR 13/07 A3032 RMK AO1 T01310074
KLVL 182215Z AUTO 00000KT 10SM CLR 15/07 A3032 RMK AO1 T01460067
KLVL 182155Z AUTO 00000KT 10SM CLR 17/05 A3031 RMK AO1 T01720051
KLVL 182135Z AUTO 00000KT 10SM CLR 18/04 A3031 RMK AO1 T01840040
KLVL 182115Z AUTO 00000KT 10SM CLR 19/04 A3031 RMK AO1 T01900040
KLVL 182055Z AUTO 00000KT 10SM CLR 19/03 A3032 RMK AO1 T01910032
KLVL 182035Z AUTO 00000KT 10SM CLR 19/03 A3032 RMK AO1 T01920031
KLVL 182015Z AUTO 00000KT 10SM CLR 20/03 A3032 RMK AO1 T01970032
KLVL 181955Z AUTO 00000KT 7SM CLR 19/03 A3033 RMK AO1 T01940030
KLVL 181935Z AUTO 08003KT 10SM SCT035 20/03 A3034 RMK AO1 T01970031
KLVL 181915Z AUTO 00000KT 10SM SCT031 19/02 A3034 RMK AO1 T01880024
KLVL 181855Z AUTO 00000KT 10SM SCT031 SCT038 19/02 A3035 RMK AO1 T01920024
KLVL 181835Z AUTO 00000KT 7SM SCT033 SCT038 19/02 A3035 RMK AO1 T01890019
KLVL 181815Z AUTO 35003KT 10SM CLR 19/02 A3036 RMK AO1 T01870017
KLVL 181755Z AUTO 11004KT 10SM CLR 19/02 A3036 RMK AO1 T01890016 10190 20010
KLVL 181735Z AUTO 08004KT 10SM CLR 18/02 A3037 RMK AO1 T01840015
KLVL 181715Z AUTO 05004KT 10SM CLR 19/01 A3038 RMK AO1 T01850012
KLVL 181655Z AUTO 06004KT 10SM CLR 18/01 A3039 RMK AO1 T01790009
KLVL 181635Z AUTO 01003KT 10SM CLR 17/02 A3040 RMK AO1 T01700015
KLVL 181615Z AUTO 03004KT 10SM CLR 17/00 A3041 RMK AO1 T01690001
KLVL 181555Z AUTO 07005KT 10SM CLR 17/00 A3041 RMK AO1 T01650003
KLVL 181535Z AUTO 02004KT 10SM CLR 16/01 A3041 RMK AO1 T01600007
KLVL 181515Z AUTO 00000KT 10SM CLR 15/03 A3042 RMK AO1 T01540025
KLVL 181455Z AUTO 00000KT 10SM CLR 15/03 A3041 RMK AO1 T01470032
KLVL 181435Z AUTO 35003KT 10SM CLR 14/05 A3041 RMK AO1 T01420052
KLVL 181415Z AUTO 00000KT 10SM CLR 13/06 A3041 RMK AO1 T01330063
KLVL 181355Z AUTO 34003KT 10SM CLR 12/06 A3041 RMK AO1 T01230056
KLVL 181335Z AUTO 34004KT 10SM CLR 11/07 A3040 RMK AO1 T01100069
KLVL 181315Z AUTO 00000KT 10SM CLR 10/07 A3039 RMK AO1 T00950070
KLVL 181255Z AUTO 00000KT 10SM CLR 08/07 A3039 RMK AO1 T00760065
KLVL 181235Z AUTO 00000KT 10SM CLR 05/05 A3039 RMK AO1 T00530048
KLVL 181215Z AUTO 00000KT 10SM CLR 02/02 A3038 RMK AO1 T00240019
KLVL 181155Z AUTO 00000KT 10SM CLR 01/01 A3038 RMK AO1 T00110006 10050 20006
KLVL 181135Z AUTO 00000KT 10SM CLR 01/00 A3037 RMK AO1 T00080003
KLVL 181115Z AUTO 00000KT 10SM CLR 01/00 A3037 RMK AO1 T00060001
KLVL 181055Z AUTO 00000KT 10SM CLR 01/01 A3036 RMK AO1 T00130008
KLVL 181035Z AUTO 00000KT 10SM CLR 03/02 A3035 RMK AO1 T00280024
KLVL 181015Z AUTO 00000KT 10SM CLR 03/02 A3035 RMK AO1 T00260023
KLVL 180955Z AUTO 00000KT 10SM CLR 03/02 A3035 RMK AO1 T00260022
KLVL 180935Z AUTO 00000KT 10SM CLR 02/02 A3035 RMK AO1 T00220018
KLVL 180915Z AUTO 00000KT 7SM CLR 01/01 A3035 RMK AO1 T00120008
KLVL 180855Z AUTO 00000KT 10SM CLR 01/01 A3035 RMK AO1 T00110007
KLVL 180835Z AUTO 00000KT 7SM CLR 02/01 A3034 RMK AO1 T00170012
KLVL 180815Z AUTO 00000KT 10SM CLR 03/02 A3033 RMK AO1 T00260021
KLVL 180755Z AUTO 00000KT 10SM CLR 02/02 A3033 RMK AO1 T00220018
KLVL 180735Z AUTO 00000KT 10SM CLR 04/04 A3033 RMK AO1 T00390035
KLVL 180715Z AUTO 00000KT 10SM CLR 04/04 A3033 RMK AO1 T00410036
KLVL 180655Z AUTO 00000KT 10SM CLR 04/04 A3033 RMK AO1 T00430037
KLVL 180635Z AUTO 00000KT 10SM CLR 04/04 A3033 RMK AO1 T00430037
KLVL 180615Z AUTO 00000KT 10SM CLR 05/04 A3033 RMK AO1 T00500042
KLVL 180555Z AUTO 00000KT 10SM CLR 05/04 A3033 RMK AO1 T00490040 10089 20047
KLVL 180535Z AUTO 00000KT 10SM CLR 05/04 A3033 RMK AO1 T00520042
KLVL 180515Z AUTO 00000KT 10SM CLR 05/04 A3033 RMK AO1 T00510042
KLVL 180455Z AUTO 00000KT 10SM CLR 06/04 A3033 RMK AO1 T00580044 401700048
KLVL 180435Z AUTO 00000KT 10SM CLR 06/04 A3034 RMK AO1 T00580043
KLVL 180415Z AUTO 00000KT 10SM CLR 06/04 A3034 RMK AO1 T00570043
KLVL 180355Z AUTO 00000KT 10SM CLR 06/04 A3034 RMK AO1 T00550040
KLVL 180335Z AUTO 00000KT 10SM CLR 05/03 A3035 RMK AO1 T00520034
KLVL 180315Z AUTO 00000KT 10SM CLR 06/04 A3035 RMK AO1 T00580039
KLVL 180255Z AUTO 00000KT 10SM CLR 06/04 A3035 RMK AO1 T00570036
KLVL 180235Z AUTO 00000KT 10SM CLR 06/04 A3035 RMK AO1 T00630042
KLVL 180215Z AUTO 00000KT 10SM CLR 07/04 A3035 RMK AO1 T00670041
KLVL 180155Z AUTO 00000KT 10SM CLR 07/04 A3034 RMK AO1 T00680042
KLVL 180135Z AUTO 00000KT 10SM CLR 07/05 A3034 RMK AO1 T00710045
KLVL 180115Z AUTO 00000KT 10SM CLR 07/04 A3033 RMK AO1 T00720040
KLVL 180055Z AUTO 00000KT 10SM CLR 08/04 A3033 RMK AO1 T00780043
KLVL 180035Z AUTO 00000KT 10SM CLR 08/05 A3033 RMK AO1 T00800046
KLVL 180015Z AUTO 00000KT 10SM CLR 08/05 A3032 RMK AO1 T00800046
KLVL 172355Z AUTO 00000KT 10SM CLR 09/04 A3031 RMK AO1 T00880038 10170 20082
KLVL 172335Z AUTO 00000KT 10SM CLR 08/05 A3031 RMK AO1 T00840045
KLVL 172315Z AUTO 00000KT 10SM CLR 09/05 A3031 RMK AO1 T00910045
KLVL 172255Z AUTO 00000KT 10SM CLR 10/05 A3031 RMK AO1 T00980045